sensor_id;sensor_type;location;lat;lon;timestamp;P1;durP1;ratioP1;P2;durP2;ratioP2
43877;SDS011;29815;48.184;11.268;2023-08-06T00:02:04;5.38;;;4.45;;
43877;SDS011;29815;48.184;11.268;2023-08-06T00:04:34;5.35;;;4.40;;
43877;SDS011;29815;48.184;11.268;2023-08-06T00:07:05;5.85;;;4.68;;
43877;SDS011;29815;48.184;11.268;2023-08-06T00:09:34;7.05;;;4.65;;
43877;SDS011;29815;48.184;11.268;2023-08-06T00:12:04;5.20;;;4.38;;
43877;SDS011;29815;48.184;11.268;2023-08-06T00:14:35;6.65;;;4.57;;
43877;SDS011;29815;48.184;11.268;2023-08-06T00:17:04;6.32;;;4.35;;
43877;SDS011;29815;48.184;11.268;2023-08-06T00:19:34;6.22;;;4.78;;
43877;SDS011;29815;48.184;11.268;2023-08-06T00:22:05;4.65;;;4.15;;
43877;SDS011;29815;48.184;11.268;2023-08-06T00:24:34;6.10;;;3.75;;
43877;SDS011;29815;48.184;11.268;2023-08-06T00:27:04;4.00;;;3.58;;
43877;SDS011;29815;48.184;11.268;2023-08-06T00:29:34;5.97;;;3.80;;
43877;SDS011;29815;48.184;11.268;2023-08-06T00:32:04;6.20;;;4.18;;
43877;SDS011;29815;48.184;11.268;2023-08-06T00:34:38;5.28;;;4.78;;
43877;SDS011;29815;48.184;11.268;2023-08-06T00:37:07;9.23;;;5.47;;
43877;SDS011;29815;48.184;11.268;2023-08-06T00:39:37;6.47;;;4.68;;
43877;SDS011;29815;48.184;11.268;2023-08-06T00:42:06;6.05;;;5.00;;
43877;SDS011;29815;48.184;11.268;2023-08-06T00:44:36;5.00;;;4.50;;
43877;SDS011;29815;48.184;11.268;2023-08-06T00:47:07;7.65;;;5.47;;
43877;SDS011;29815;48.184;11.268;2023-08-06T00:49:39;6.35;;;5.43;;
43877;SDS011;29815;48.184;11.268;2023-08-06T00:52:09;7.20;;;5.78;;
43877;SDS011;29815;48.184;11.268;2023-08-06T00:54:40;6.35;;;5.72;;
43877;SDS011;29815;48.184;11.268;2023-08-06T00:57:10;9.75;;;5.85;;
43877;SDS011;29815;48.184;11.268;2023-08-06T00:59:40;6.80;;;5.63;;
43877;SDS011;29815;48.184;11.268;2023-08-06T01:02:10;7.57;;;6.78;;
43877;SDS011;29815;48.184;11.268;2023-08-06T01:04:41;8.15;;;6.63;;
43877;SDS011;29815;48.184;11.268;2023-08-06T01:07:13;10.25;;;7.25;;
43877;SDS011;29815;48.184;11.268;2023-08-06T01:10:04;7.72;;;6.22;;
43877;SDS011;29815;48.184;11.268;2023-08-06T01:12:55;7.97;;;6.80;;
43877;SDS011;29815;48.184;11.268;2023-08-06T01:15:38;9.80;;;7.80;;
43877;SDS011;29815;48.184;11.268;2023-08-06T01:18:16;9.30;;;6.50;;
43877;SDS011;29815;48.184;11.268;2023-08-06T01:20:47;7.85;;;6.03;;
43877;SDS011;29815;48.184;11.268;2023-08-06T01:23:17;8.57;;;6.40;;
43877;SDS011;29815;48.184;11.268;2023-08-06T01:25:49;8.13;;;6.90;;
43877;SDS011;29815;48.184;11.268;2023-08-06T01:31:18;6.97;;;5.53;;
43877;SDS011;29815;48.184;11.268;2023-08-06T01:33:55;8.60;;;6.00;;
43877;SDS011;29815;48.184;11.268;2023-08-06T01:36:28;7.88;;;6.45;;
43877;SDS011;29815;48.184;11.268;2023-08-06T01:39:00;7.90;;;5.95;;
43877;SDS011;29815;48.184;11.268;2023-08-06T01:41:30;9.77;;;6.75;;
43877;SDS011;29815;48.184;11.268;2023-08-06T01:43:59;7.90;;;7.13;;
43877;SDS011;29815;48.184;11.268;2023-08-06T01:46:29;8.52;;;6.75;;
43877;SDS011;29815;48.184;11.268;2023-08-06T01:48:59;7.95;;;6.63;;
43877;SDS011;29815;48.184;11.268;2023-08-06T01:51:30;7.78;;;6.10;;
43877;SDS011;29815;48.184;11.268;2023-08-06T01:53:59;7.15;;;5.75;;
43877;SDS011;29815;48.184;11.268;2023-08-06T01:56:29;6.35;;;4.53;;
43877;SDS011;29815;48.184;11.268;2023-08-06T02:02:51;4.47;;;4.03;;
43877;SDS011;29815;48.184;11.268;2023-08-06T02:05:21;6.20;;;4.18;;
43877;SDS011;29815;48.184;11.268;2023-08-06T02:07:51;5.65;;;4.57;;
43877;SDS011;29815;48.184;11.268;2023-08-06T02:10:21;4.70;;;4.15;;
43877;SDS011;29815;48.184;11.268;2023-08-06T02:12:51;4.85;;;4.28;;
43877;SDS011;29815;48.184;11.268;2023-08-06T02:15:21;6.50;;;4.18;;
43877;SDS011;29815;48.184;11.268;2023-08-06T02:17:50;4.88;;;4.15;;
43877;SDS011;29815;48.184;11.268;2023-08-06T02:20:20;4.88;;;4.05;;
43877;SDS011;29815;48.184;11.268;2023-08-06T02:22:49;4.72;;;3.88;;
43877;SDS011;29815;48.184;11.268;2023-08-06T02:25:20;8.40;;;4.47;;
43877;SDS011;29815;48.184;11.268;2023-08-06T02:27:50;5.38;;;3.55;;
43877;SDS011;29815;48.184;11.268;2023-08-06T02:30:19;4.18;;;3.67;;
43877;SDS011;29815;48.184;11.268;2023-08-06T02:32:49;5.97;;;3.65;;
43877;SDS011;29815;48.184;11.268;2023-08-06T02:35:19;6.20;;;4.30;;
43877;SDS011;29815;48.184;11.268;2023-08-06T02:37:48;4.13;;;3.72;;
43877;SDS011;29815;48.184;11.268;2023-08-06T02:40:19;4.25;;;3.53;;
43877;SDS011;29815;48.184;11.268;2023-08-06T02:42:49;4.30;;;3.85;;
43877;SDS011;29815;48.184;11.268;2023-08-06T02:45:19;5.43;;;4.00;;
43877;SDS011;29815;48.184;11.268;2023-08-06T02:47:49;4.18;;;3.78;;
43877;SDS011;29815;48.184;11.268;2023-08-06T02:50:19;4.90;;;3.78;;
43877;SDS011;29815;48.184;11.268;2023-08-06T02:52:49;4.47;;;4.07;;
43877;SDS011;29815;48.184;11.268;2023-08-06T02:55:19;4.28;;;3.85;;
43877;SDS011;29815;48.184;11.268;2023-08-06T02:57:50;6.82;;;4.05;;
43877;SDS011;29815;48.184;11.268;2023-08-06T03:00:20;5.07;;;4.00;;
43877;SDS011;29815;48.184;11.268;2023-08-06T03:02:49;3.97;;;3.50;;
43877;SDS011;29815;48.184;11.268;2023-08-06T03:05:39;4.63;;;4.00;;
43877;SDS011;29815;48.184;11.268;2023-08-06T03:08:08;4.80;;;3.55;;
43877;SDS011;29815;48.184;11.268;2023-08-06T03:10:39;4.28;;;3.70;;
43877;SDS011;29815;48.184;11.268;2023-08-06T03:13:10;7.57;;;3.73;;
43877;SDS011;29815;48.184;11.268;2023-08-06T03:15:40;5.17;;;3.73;;
43877;SDS011;29815;48.184;11.268;2023-08-06T03:18:11;5.07;;;3.53;;
43877;SDS011;29815;48.184;11.268;2023-08-06T03:20:41;5.32;;;3.97;;
43877;SDS011;29815;48.184;11.268;2023-08-06T03:23:10;4.55;;;3.88;;
43877;SDS011;29815;48.184;11.268;2023-08-06T03:25:42;5.55;;;3.67;;
43877;SDS011;29815;48.184;11.268;2023-08-06T03:28:13;4.90;;;3.63;;
43877;SDS011;29815;48.184;11.268;2023-08-06T03:30:43;4.63;;;3.42;;
43877;SDS011;29815;48.184;11.268;2023-08-06T03:33:13;4.03;;;3.42;;
43877;SDS011;29815;48.184;11.268;2023-08-06T03:35:44;3.55;;;2.97;;
43877;SDS011;29815;48.184;11.268;2023-08-06T03:38:14;4.03;;;3.30;;
43877;SDS011;29815;48.184;11.268;2023-08-06T03:40:45;6.03;;;3.40;;
43877;SDS011;29815;48.184;11.268;2023-08-06T03:43:15;4.55;;;3.47;;
43877;SDS011;29815;48.184;11.268;2023-08-06T03:45:45;6.95;;;3.80;;
43877;SDS011;29815;48.184;11.268;2023-08-06T03:48:15;7.15;;;3.08;;
43877;SDS011;29815;48.184;11.268;2023-08-06T03:50:44;5.38;;;3.30;;
43877;SDS011;29815;48.184;11.268;2023-08-06T03:53:17;4.82;;;3.17;;
43877;SDS011;29815;48.184;11.268;2023-08-06T03:55:48;5.53;;;3.15;;
43877;SDS011;29815;48.184;11.268;2023-08-06T03:58:18;5.28;;;3.05;;
43877;SDS011;29815;48.184;11.268;2023-08-06T04:00:47;5.47;;;3.35;;
43877;SDS011;29815;48.184;11.268;2023-08-06T04:03:17;3.95;;;2.90;;
43877;SDS011;29815;48.184;11.268;2023-08-06T04:05:47;3.33;;;2.88;;
43877;SDS011;29815;48.184;11.268;2023-08-06T04:08:16;4.15;;;3.00;;
43877;SDS011;29815;48.184;11.268;2023-08-06T04:10:50;4.90;;;2.70;;
43877;SDS011;29815;48.184;11.268;2023-08-06T04:13:21;3.95;;;3.20;;
43877;SDS011;29815;48.184;11.268;2023-08-06T04:15:50;4.38;;;3.10;;
43877;SDS011;29815;48.184;11.268;2023-08-06T04:18:21;4.53;;;2.83;;
43877;SDS011;29815;48.184;11.268;2023-08-06T04:20:53;4.07;;;2.88;;
43877;SDS011;29815;48.184;11.268;2023-08-06T04:23:22;4.28;;;2.40;;
43877;SDS011;29815;48.184;11.268;2023-08-06T04:25:57;3.85;;;2.95;;
43877;SDS011;29815;48.184;11.268;2023-08-06T04:28:31;5.72;;;3.38;;
43877;SDS011;29815;48.184;11.268;2023-08-06T04:31:00;2.85;;;2.20;;
43877;SDS011;29815;48.184;11.268;2023-08-06T04:33:32;6.32;;;3.17;;
43877;SDS011;29815;48.184;11.268;2023-08-06T04:36:08;5.35;;;2.53;;
43877;SDS011;29815;48.184;11.268;2023-08-06T04:38:38;5.22;;;2.67;;
43877;SDS011;29815;48.184;11.268;2023-08-06T04:41:13;3.17;;;2.40;;
43877;SDS011;29815;48.184;11.268;2023-08-06T04:43:42;2.95;;;2.50;;
43877;SDS011;29815;48.184;11.268;2023-08-06T04:46:12;3.25;;;2.78;;
43877;SDS011;29815;48.184;11.268;2023-08-06T04:48:42;3.25;;;2.58;;
43877;SDS011;29815;48.184;11.268;2023-08-06T04:51:11;4.35;;;2.67;;
43877;SDS011;29815;48.184;11.268;2023-08-06T04:53:41;4.43;;;2.85;;
43877;SDS011;29815;48.184;11.268;2023-08-06T04:56:12;3.92;;;3.08;;
43877;SDS011;29815;48.184;11.268;2023-08-06T04:58:42;3.33;;;2.60;;
43877;SDS011;29815;48.184;11.268;2023-08-06T05:01:11;4.13;;;2.70;;
43877;SDS011;29815;48.184;11.268;2023-08-06T05:03:41;3.80;;;2.67;;
43877;SDS011;29815;48.184;11.268;2023-08-06T05:06:10;3.78;;;2.78;;
43877;SDS011;29815;48.184;11.268;2023-08-06T05:08:40;3.80;;;2.58;;
43877;SDS011;29815;48.184;11.268;2023-08-06T05:11:09;3.22;;;2.35;;
43877;SDS011;29815;48.184;11.268;2023-08-06T05:13:40;3.80;;;3.08;;
43877;SDS011;29815;48.184;11.268;2023-08-06T05:16:10;4.20;;;3.00;;
43877;SDS011;29815;48.184;11.268;2023-08-06T05:18:39;3.33;;;2.22;;
43877;SDS011;29815;48.184;11.268;2023-08-06T05:21:09;4.82;;;2.67;;
43877;SDS011;29815;48.184;11.268;2023-08-06T05:23:39;3.03;;;2.55;;
43877;SDS011;29815;48.184;11.268;2023-08-06T05:26:08;4.65;;;2.38;;
43877;SDS011;29815;48.184;11.268;2023-08-06T05:28:38;3.83;;;3.28;;
43877;SDS011;29815;48.184;11.268;2023-08-06T05:31:10;3.17;;;2.47;;
43877;SDS011;29815;48.184;11.268;2023-08-06T05:33:39;3.85;;;2.38;;
43877;SDS011;29815;48.184;11.268;2023-08-06T05:36:09;2.60;;;2.13;;
43877;SDS011;29815;48.184;11.268;2023-08-06T05:38:38;2.97;;;2.65;;
43877;SDS011;29815;48.184;11.268;2023-08-06T05:41:08;3.40;;;2.22;;
43877;SDS011;29815;48.184;11.268;2023-08-06T05:43:37;3.22;;;2.83;;
43877;SDS011;29815;48.184;11.268;2023-08-06T05:46:07;3.53;;;2.47;;
43877;SDS011;29815;48.184;11.268;2023-08-06T05:48:38;3.10;;;2.60;;
43877;SDS011;29815;48.184;11.268;2023-08-06T05:51:08;3.65;;;2.63;;
43877;SDS011;29815;48.184;11.268;2023-08-06T05:53:40;3.50;;;2.67;;
43877;SDS011;29815;48.184;11.268;2023-08-06T05:56:09;2.90;;;2.38;;
43877;SDS011;29815;48.184;11.268;2023-08-06T05:58:39;2.83;;;2.13;;
43877;SDS011;29815;48.184;11.268;2023-08-06T06:01:09;3.60;;;2.75;;
43877;SDS011;29815;48.184;11.268;2023-08-06T06:03:39;3.85;;;2.63;;
43877;SDS011;29815;48.184;11.268;2023-08-06T06:06:09;3.67;;;2.00;;
43877;SDS011;29815;48.184;11.268;2023-08-06T06:08:38;2.67;;;2.17;;
43877;SDS011;29815;48.184;11.268;2023-08-06T06:11:08;3.03;;;2.20;;
43877;SDS011;29815;48.184;11.268;2023-08-06T06:13:37;3.63;;;2.33;;
43877;SDS011;29815;48.184;11.268;2023-08-06T06:16:07;3.45;;;2.30;;
43877;SDS011;29815;48.184;11.268;2023-08-06T06:18:38;3.30;;;2.08;;
43877;SDS011;29815;48.184;11.268;2023-08-06T06:21:07;3.28;;;1.85;;
43877;SDS011;29815;48.184;11.268;2023-08-06T06:23:38;3.70;;;1.77;;
43877;SDS011;29815;48.184;11.268;2023-08-06T06:26:07;3.03;;;2.08;;
43877;SDS011;29815;48.184;11.268;2023-08-06T06:28:37;3.05;;;2.10;;
43877;SDS011;29815;48.184;11.268;2023-08-06T06:31:07;2.45;;;1.80;;
43877;SDS011;29815;48.184;11.268;2023-08-06T06:33:38;2.92;;;2.10;;
43877;SDS011;29815;48.184;11.268;2023-08-06T06:36:07;3.28;;;2.10;;
43877;SDS011;29815;48.184;11.268;2023-08-06T06:38:37;3.72;;;1.70;;
43877;SDS011;29815;48.184;11.268;2023-08-06T06:41:07;2.40;;;1.65;;
43877;SDS011;29815;48.184;11.268;2023-08-06T06:43:36;2.05;;;1.27;;
43877;SDS011;29815;48.184;11.268;2023-08-06T06:46:07;4.65;;;1.85;;
43877;SDS011;29815;48.184;11.268;2023-08-06T06:48:38;2.65;;;1.25;;
43877;SDS011;29815;48.184;11.268;2023-08-06T06:51:07;3.60;;;1.38;;
43877;SDS011;29815;48.184;11.268;2023-08-06T06:53:37;2.17;;;1.30;;
43877;SDS011;29815;48.184;11.268;2023-08-06T06:56:06;3.83;;;1.20;;
43877;SDS011;29815;48.184;11.268;2023-08-06T06:58:36;3.05;;;1.35;;
43877;SDS011;29815;48.184;11.268;2023-08-06T07:01:06;3.85;;;0.95;;
43877;SDS011;29815;48.184;11.268;2023-08-06T07:03:39;1.67;;;1.00;;
43877;SDS011;29815;48.184;11.268;2023-08-06T07:06:08;1.73;;;1.15;;
43877;SDS011;29815;48.184;11.268;2023-08-06T07:08:39;2.42;;;1.38;;
43877;SDS011;29815;48.184;11.268;2023-08-06T07:11:09;3.30;;;1.48;;
43877;SDS011;29815;48.184;11.268;2023-08-06T07:13:38;3.35;;;1.23;;
43877;SDS011;29815;48.184;11.268;2023-08-06T07:16:08;2.33;;;1.15;;
43877;SDS011;29815;48.184;11.268;2023-08-06T07:18:39;1.92;;;1.10;;
43877;SDS011;29815;48.184;11.268;2023-08-06T07:21:09;2.38;;;1.38;;
43877;SDS011;29815;48.184;11.268;2023-08-06T07:23:38;1.95;;;1.10;;
43877;SDS011;29815;48.184;11.268;2023-08-06T07:26:08;2.08;;;1.30;;
43877;SDS011;29815;48.184;11.268;2023-08-06T07:28:37;2.63;;;1.15;;
43877;SDS011;29815;48.184;11.268;2023-08-06T07:31:07;4.10;;;1.10;;
43877;SDS011;29815;48.184;11.268;2023-08-06T07:33:40;2.13;;;1.02;;
43877;SDS011;29815;48.184;11.268;2023-08-06T07:36:10;1.85;;;1.25;;
43877;SDS011;29815;48.184;11.268;2023-08-06T07:38:42;3.38;;;1.27;;
43877;SDS011;29815;48.184;11.268;2023-08-06T07:41:12;3.10;;;1.30;;
43877;SDS011;29815;48.184;11.268;2023-08-06T07:43:41;3.53;;;1.38;;
43877;SDS011;29815;48.184;11.268;2023-08-06T07:46:11;2.35;;;0.80;;
43877;SDS011;29815;48.184;11.268;2023-08-06T07:48:42;2.40;;;1.08;;
43877;SDS011;29815;48.184;11.268;2023-08-06T07:51:12;2.88;;;1.20;;
43877;SDS011;29815;48.184;11.268;2023-08-06T07:53:41;1.70;;;0.98;;
43877;SDS011;29815;48.184;11.268;2023-08-06T07:56:11;2.05;;;0.77;;
43877;SDS011;29815;48.184;11.268;2023-08-06T07:58:40;2.38;;;0.98;;
43877;SDS011;29815;48.184;11.268;2023-08-06T08:01:10;1.75;;;1.02;;
43877;SDS011;29815;48.184;11.268;2023-08-06T08:03:40;4.22;;;1.30;;
43877;SDS011;29815;48.184;11.268;2023-08-06T08:06:11;1.38;;;0.90;;
43877;SDS011;29815;48.184;11.268;2023-08-06T08:08:40;1.88;;;0.80;;
43877;SDS011;29815;48.184;11.268;2023-08-06T08:11:10;2.80;;;1.20;;
43877;SDS011;29815;48.184;11.268;2023-08-06T08:13:39;2.13;;;0.70;;
43877;SDS011;29815;48.184;11.268;2023-08-06T08:16:09;2.08;;;0.98;;
43877;SDS011;29815;48.184;11.268;2023-08-06T08:18:38;1.40;;;0.90;;
43877;SDS011;29815;48.184;11.268;2023-08-06T08:21:08;1.13;;;0.80;;
43877;SDS011;29815;48.184;11.268;2023-08-06T08:26:11;3.25;;;0.60;;
43877;SDS011;29815;48.184;11.268;2023-08-06T08:28:41;1.58;;;0.60;;
43877;SDS011;29815;48.184;11.268;2023-08-06T08:31:11;2.17;;;0.65;;
43877;SDS011;29815;48.184;11.268;2023-08-06T08:33:41;3.17;;;0.88;;
43877;SDS011;29815;48.184;11.268;2023-08-06T08:36:11;1.15;;;0.50;;
43877;SDS011;29815;48.184;11.268;2023-08-06T08:38:41;2.15;;;0.60;;
43877;SDS011;29815;48.184;11.268;2023-08-06T08:41:10;1.42;;;0.68;;
43877;SDS011;29815;48.184;11.268;2023-08-06T08:43:40;2.67;;;0.60;;
43877;SDS011;29815;48.184;11.268;2023-08-06T08:46:11;2.35;;;0.57;;
43877;SDS011;29815;48.184;11.268;2023-08-06T08:48:42;1.88;;;0.40;;
43877;SDS011;29815;48.184;11.268;2023-08-06T08:51:13;1.27;;;0.43;;
43877;SDS011;29815;48.184;11.268;2023-08-06T08:53:45;1.83;;;0.45;;
43877;SDS011;29815;48.184;11.268;2023-08-06T08:56:15;0.65;;;0.20;;
43877;SDS011;29815;48.184;11.268;2023-08-06T08:58:45;0.70;;;0.40;;
43877;SDS011;29815;48.184;11.268;2023-08-06T09:01:15;3.05;;;0.70;;
43877;SDS011;29815;48.184;11.268;2023-08-06T09:03:45;3.08;;;1.00;;
43877;SDS011;29815;48.184;11.268;2023-08-06T09:06:16;3.03;;;0.38;;
43877;SDS011;29815;48.184;11.268;2023-08-06T09:08:50;2.35;;;1.75;;
43877;SDS011;29815;48.184;11.268;2023-08-06T09:11:36;0.88;;;0.40;;
43877;SDS011;29815;48.184;11.268;2023-08-06T09:14:11;0.43;;;0.30;;
43877;SDS011;29815;48.184;11.268;2023-08-06T09:16:41;0.45;;;0.15;;
43877;SDS011;29815;48.184;11.268;2023-08-06T09:19:11;0.13;;;0.13;;
43877;SDS011;29815;48.184;11.268;2023-08-06T09:21:45;1.85;;;0.75;;
43877;SDS011;29815;48.184;11.268;2023-08-06T09:24:16;1.00;;;0.30;;
43877;SDS011;29815;48.184;11.268;2023-08-06T09:26:45;2.47;;;0.43;;
43877;SDS011;29815;48.184;11.268;2023-08-06T09:29:15;1.58;;;0.35;;
43877;SDS011;29815;48.184;11.268;2023-08-06T09:31:45;1.30;;;0.25;;
43877;SDS011;29815;48.184;11.268;2023-08-06T09:34:17;0.33;;;0.10;;
43877;SDS011;29815;48.184;11.268;2023-08-06T09:36:50;0.82;;;0.20;;
43877;SDS011;29815;48.184;11.268;2023-08-06T09:39:26;1.42;;;0.35;;
43877;SDS011;29815;48.184;11.268;2023-08-06T09:41:58;1.83;;;0.45;;
43877;SDS011;29815;48.184;11.268;2023-08-06T09:44:30;0.43;;;0.20;;
43877;SDS011;29815;48.184;11.268;2023-08-06T09:47:02;2.38;;;0.30;;
43877;SDS011;29815;48.184;11.268;2023-08-06T09:49:42;0.43;;;0.30;;
43877;SDS011;29815;48.184;11.268;2023-08-06T09:52:14;1.95;;;0.30;;
43877;SDS011;29815;48.184;11.268;2023-08-06T09:54:44;1.08;;;0.38;;
43877;SDS011;29815;48.184;11.268;2023-08-06T09:57:16;1.57;;;0.37;;
43877;SDS011;29815;48.184;11.268;2023-08-06T09:59:46;0.90;;;0.20;;
43877;SDS011;29815;48.184;11.268;2023-08-06T10:02:15;1.58;;;0.15;;
43877;SDS011;29815;48.184;11.268;2023-08-06T10:04:48;3.15;;;0.30;;
43877;SDS011;29815;48.184;11.268;2023-08-06T10:07:23;1.00;;;0.30;;
43877;SDS011;29815;48.184;11.268;2023-08-06T10:09:53;0.70;;;0.32;;
43877;SDS011;29815;48.184;11.268;2023-08-06T10:12:22;1.17;;;0.30;;
43877;SDS011;29815;48.184;11.268;2023-08-06T10:14:54;1.17;;;0.25;;
43877;SDS011;29815;48.184;11.268;2023-08-06T10:17:28;0.30;;;0.17;;
43877;SDS011;29815;48.184;11.268;2023-08-06T10:20:17;1.00;;;0.30;;
43877;SDS011;29815;48.184;11.268;2023-08-06T10:23:00;1.92;;;0.30;;
43877;SDS011;29815;48.184;11.268;2023-08-06T10:25:31;0.85;;;0.73;;
43877;SDS011;29815;48.184;11.268;2023-08-06T10:28:06;2.08;;;0.28;;
43877;SDS011;29815;48.184;11.268;2023-08-06T10:30:41;1.15;;;0.30;;
43877;SDS011;29815;48.184;11.268;2023-08-06T10:33:13;0.73;;;0.45;;
43877;SDS011;29815;48.184;11.268;2023-08-06T10:35:44;0.50;;;0.30;;
43877;SDS011;29815;48.184;11.268;2023-08-06T10:38:19;0.95;;;0.10;;
43877;SDS011;29815;48.184;11.268;2023-08-06T10:41:00;0.57;;;0.40;;
43877;SDS011;29815;48.184;11.268;2023-08-06T10:43:32;0.17;;;0.17;;
43877;SDS011;29815;48.184;11.268;2023-08-06T10:46:08;1.48;;;0.20;;
43877;SDS011;29815;48.184;11.268;2023-08-06T10:48:40;0.65;;;0.47;;
43877;SDS011;29815;48.184;11.268;2023-08-06T10:51:14;0.20;;;0.10;;
43877;SDS011;29815;48.184;11.268;2023-08-06T10:53:45;0.13;;;0.10;;
43877;SDS011;29815;48.184;11.268;2023-08-06T10:58:50;0.30;;;0.20;;
43877;SDS011;29815;48.184;11.268;2023-08-06T11:01:22;0.10;;;0.03;;
43877;SDS011;29815;48.184;11.268;2023-08-06T11:03:52;2.83;;;0.20;;
43877;SDS011;29815;48.184;11.268;2023-08-06T11:06:22;0.50;;;0.13;;
43877;SDS011;29815;48.184;11.268;2023-08-06T11:08:55;0.20;;;0.10;;
43877;SDS011;29815;48.184;11.268;2023-08-06T11:11:24;2.65;;;0.20;;
43877;SDS011;29815;48.184;11.268;2023-08-06T11:13:54;0.32;;;0.10;;
43877;SDS011;29815;48.184;11.268;2023-08-06T11:16:24;0.40;;;0.20;;
43877;SDS011;29815;48.184;11.268;2023-08-06T11:18:53;0.30;;;0.00;;
43877;SDS011;29815;48.184;11.268;2023-08-06T11:21:25;0.00;;;0.00;;
43877;SDS011;29815;48.184;11.268;2023-08-06T11:23:56;0.43;;;0.17;;
43877;SDS011;29815;48.184;11.268;2023-08-06T11:26:25;0.55;;;0.10;;
43877;SDS011;29815;48.184;11.268;2023-08-06T11:28:56;0.10;;;0.10;;
43877;SDS011;29815;48.184;11.268;2023-08-06T11:31:26;0.20;;;0.05;;
43877;SDS011;29815;48.184;11.268;2023-08-06T11:33:55;0.25;;;0.10;;
43877;SDS011;29815;48.184;11.268;2023-08-06T11:36:28;0.25;;;0.20;;
43877;SDS011;29815;48.184;11.268;2023-08-06T11:39:00;0.63;;;0.10;;
43877;SDS011;29815;48.184;11.268;2023-08-06T11:41:32;0.20;;;0.10;;
43877;SDS011;29815;48.184;11.268;2023-08-06T11:44:03;1.58;;;0.17;;
43877;SDS011;29815;48.184;11.268;2023-08-06T11:49:37;0.17;;;0.10;;
43877;SDS011;29815;48.184;11.268;2023-08-06T11:52:10;0.10;;;0.10;;
43877;SDS011;29815;48.184;11.268;2023-08-06T11:54:49;0.50;;;0.20;;
43877;SDS011;29815;48.184;11.268;2023-08-06T11:57:34;0.28;;;0.20;;
43877;SDS011;29815;48.184;11.268;2023-08-06T12:00:05;0.32;;;0.10;;
43877;SDS011;29815;48.184;11.268;2023-08-06T12:02:43;0.43;;;0.10;;
43877;SDS011;29815;48.184;11.268;2023-08-06T12:05:14;0.30;;;0.20;;
43877;SDS011;29815;48.184;11.268;2023-08-06T12:07:48;0.40;;;0.10;;
43877;SDS011;29815;48.184;11.268;2023-08-06T12:10:25;0.40;;;0.30;;
43877;SDS011;29815;48.184;11.268;2023-08-06T12:12:58;1.33;;;0.22;;
43877;SDS011;29815;48.184;11.268;2023-08-06T12:15:28;0.13;;;0.10;;
43877;SDS011;29815;48.184;11.268;2023-08-06T12:18:00;0.45;;;0.20;;
43877;SDS011;29815;48.184;11.268;2023-08-06T12:20:30;0.30;;;0.00;;
43877;SDS011;29815;48.184;11.268;2023-08-06T12:22:59;2.75;;;0.30;;
43877;SDS011;29815;48.184;11.268;2023-08-06T12:25:30;0.35;;;0.10;;
43877;SDS011;29815;48.184;11.268;2023-08-06T12:28:00;0.70;;;0.08;;
43877;SDS011;29815;48.184;11.268;2023-08-06T12:30:30;0.20;;;0.10;;
43877;SDS011;29815;48.184;11.268;2023-08-06T12:32:59;0.20;;;0.10;;
43877;SDS011;29815;48.184;11.268;2023-08-06T12:35:29;0.65;;;0.30;;
43877;SDS011;29815;48.184;11.268;2023-08-06T12:37:59;0.20;;;0.20;;
43877;SDS011;29815;48.184;11.268;2023-08-06T12:40:28;0.20;;;0.10;;
43877;SDS011;29815;48.184;11.268;2023-08-06T12:43:05;0.10;;;0.10;;
43877;SDS011;29815;48.184;11.268;2023-08-06T12:45:35;0.15;;;0.10;;
43877;SDS011;29815;48.184;11.268;2023-08-06T12:48:05;2.75;;;0.15;;
43877;SDS011;29815;48.184;11.268;2023-08-06T12:50:34;0.25;;;0.10;;
43877;SDS011;29815;48.184;11.268;2023-08-06T12:53:04;0.75;;;0.20;;
43877;SDS011;29815;48.184;11.268;2023-08-06T12:55:35;0.20;;;0.10;;
43877;SDS011;29815;48.184;11.268;2023-08-06T12:58:05;0.20;;;0.10;;
43877;SDS011;29815;48.184;11.268;2023-08-06T13:00:34;0.10;;;0.10;;
43877;SDS011;29815;48.184;11.268;2023-08-06T13:03:04;0.38;;;0.20;;
43877;SDS011;29815;48.184;11.268;2023-08-06T13:05:34;0.95;;;0.20;;
43877;SDS011;29815;48.184;11.268;2023-08-06T13:08:04;0.65;;;0.30;;
43877;SDS011;29815;48.184;11.268;2023-08-06T13:10:35;0.03;;;0.03;;
43877;SDS011;29815;48.184;11.268;2023-08-06T13:13:05;1.33;;;0.30;;
43877;SDS011;29815;48.184;11.268;2023-08-06T13:15:34;0.32;;;0.20;;
43877;SDS011;29815;48.184;11.268;2023-08-06T13:18:04;0.30;;;0.20;;
43877;SDS011;29815;48.184;11.268;2023-08-06T13:20:34;0.38;;;0.22;;
43877;SDS011;29815;48.184;11.268;2023-08-06T13:23:06;0.20;;;0.20;;
43877;SDS011;29815;48.184;11.268;2023-08-06T13:25:37;0.68;;;0.20;;
43877;SDS011;29815;48.184;11.268;2023-08-06T13:28:07;0.43;;;0.10;;
43877;SDS011;29815;48.184;11.268;2023-08-06T13:30:36;0.38;;;0.20;;
43877;SDS011;29815;48.184;11.268;2023-08-06T13:33:09;0.43;;;0.20;;
43877;SDS011;29815;48.184;11.268;2023-08-06T13:35:39;0.20;;;0.20;;
43877;SDS011;29815;48.184;11.268;2023-08-06T13:38:11;0.20;;;0.10;;
43877;SDS011;29815;48.184;11.268;2023-08-06T13:40:42;0.45;;;0.30;;
43877;SDS011;29815;48.184;11.268;2023-08-06T13:43:11;0.38;;;0.17;;
43877;SDS011;29815;48.184;11.268;2023-08-06T13:45:43;0.50;;;0.30;;
43877;SDS011;29815;48.184;11.268;2023-08-06T13:48:12;1.90;;;0.45;;
43877;SDS011;29815;48.184;11.268;2023-08-06T13:50:42;0.40;;;0.17;;
43877;SDS011;29815;48.184;11.268;2023-08-06T13:53:12;0.22;;;0.20;;
43877;SDS011;29815;48.184;11.268;2023-08-06T13:55:43;0.65;;;0.20;;
43877;SDS011;29815;48.184;11.268;2023-08-06T13:58:12;0.32;;;0.32;;
43877;SDS011;29815;48.184;11.268;2023-08-06T14:00:42;0.73;;;0.20;;
43877;SDS011;29815;48.184;11.268;2023-08-06T14:03:11;1.00;;;0.25;;
43877;SDS011;29815;48.184;11.268;2023-08-06T14:05:41;0.57;;;0.30;;
43877;SDS011;29815;48.184;11.268;2023-08-06T14:08:11;0.20;;;0.20;;
43877;SDS011;29815;48.184;11.268;2023-08-06T14:10:42;1.85;;;0.40;;
43877;SDS011;29815;48.184;11.268;2023-08-06T14:13:12;1.10;;;0.20;;
43877;SDS011;29815;48.184;11.268;2023-08-06T14:15:41;1.00;;;0.20;;
43877;SDS011;29815;48.184;11.268;2023-08-06T14:18:14;0.57;;;0.25;;
43877;SDS011;29815;48.184;11.268;2023-08-06T14:20:46;0.70;;;0.38;;
43877;SDS011;29815;48.184;11.268;2023-08-06T14:23:15;0.22;;;0.20;;
43877;SDS011;29815;48.184;11.268;2023-08-06T14:25:46;0.45;;;0.30;;
43877;SDS011;29815;48.184;11.268;2023-08-06T14:28:16;1.40;;;0.38;;
43877;SDS011;29815;48.184;11.268;2023-08-06T14:30:46;0.50;;;0.30;;
43877;SDS011;29815;48.184;11.268;2023-08-06T14:33:15;1.17;;;0.40;;
43877;SDS011;29815;48.184;11.268;2023-08-06T14:35:54;0.90;;;0.20;;
43877;SDS011;29815;48.184;11.268;2023-08-06T14:38:23;0.68;;;0.32;;
43877;SDS011;29815;48.184;11.268;2023-08-06T14:40:54;1.58;;;0.28;;
43877;SDS011;29815;48.184;11.268;2023-08-06T14:43:24;0.98;;;0.20;;
43877;SDS011;29815;48.184;11.268;2023-08-06T14:45:54;0.22;;;0.20;;
43877;SDS011;29815;48.184;11.268;2023-08-06T14:48:24;0.40;;;0.20;;
43877;SDS011;29815;48.184;11.268;2023-08-06T14:50:54;1.20;;;0.45;;
43877;SDS011;29815;48.184;11.268;2023-08-06T14:53:23;0.85;;;0.35;;
43877;SDS011;29815;48.184;11.268;2023-08-06T14:55:55;1.88;;;0.40;;
43877;SDS011;29815;48.184;11.268;2023-08-06T14:58:24;0.30;;;0.22;;
43877;SDS011;29815;48.184;11.268;2023-08-06T15:00:54;1.10;;;0.50;;
43877;SDS011;29815;48.184;11.268;2023-08-06T15:03:24;0.65;;;0.30;;
43877;SDS011;29815;48.184;11.268;2023-08-06T15:05:55;0.60;;;0.30;;
43877;SDS011;29815;48.184;11.268;2023-08-06T15:08:25;0.60;;;0.30;;
43877;SDS011;29815;48.184;11.268;2023-08-06T15:10:56;0.43;;;0.30;;